createdAt,value
2018-09-04T00:02:02.542Z,56095.36
2018-09-04T00:04:31.624Z,56105.64
2018-09-04T00:07:00.770Z,56074.80
2018-09-04T00:09:29.931Z,56092.28
2018-09-04T00:11:59.078Z,56091.25
2018-09-04T00:14:28.188Z,56099.47
2018-09-04T00:16:57.327Z,56079.94
2018-09-04T00:19:26.511Z,56108.73
2018-09-04T00:21:55.638Z,56106.67
2018-09-04T00:24:24.796Z,56095.36
2018-09-04T00:26:53.972Z,56138.55
2018-09-04T00:29:23.141Z,56063.48
2018-09-04T00:31:52.302Z,56107.70
2018-09-04T00:34:21.465Z,56108.73
2018-09-04T00:36:50.600Z,56101.53
2018-09-04T00:39:19.766Z,56117.98
2018-09-04T00:41:48.976Z,56113.87
2018-09-04T00:44:18.102Z,56084.05
2018-09-04T00:46:47.205Z,56123.12
2018-09-04T00:49:16.334Z,56080.96
2018-09-04T00:51:45.477Z,56113.87
2018-09-04T00:54:14.664Z,56128.27
2018-09-04T00:56:43.856Z,56107.70
2018-09-04T00:59:13.059Z,56091.25
2018-09-04T01:01:42.798Z,56108.73
2018-09-04T01:04:11.951Z,56077.88
2018-09-04T01:06:41.141Z,56079.94
2018-09-04T01:09:10.266Z,56109.76
2018-09-04T01:11:39.377Z,56102.56
2018-09-04T01:14:08.494Z,56100.50
2018-09-04T01:16:37.629Z,56121.07
2018-09-04T01:19:06.737Z,56092.28
2018-09-04T01:21:35.918Z,56091.25
2018-09-04T01:24:05.068Z,56124.15
2018-09-04T01:26:34.243Z,56107.70
2018-09-04T01:29:03.493Z,56106.67
2018-09-04T01:31:32.666Z,56102.56
2018-09-04T01:34:02.405Z,56100.50
2018-09-04T01:36:32.297Z,56090.22
2018-09-04T01:39:01.489Z,56129.29
2018-09-04T01:41:30.639Z,56113.87
2018-09-04T01:43:59.797Z,56116.95
2018-09-04T01:46:28.914Z,56126.21
2018-09-04T01:48:58.052Z,56101.53
2018-09-04T01:51:27.181Z,56100.50
2018-09-04T01:53:56.354Z,56082.00
2018-09-04T01:56:25.500Z,56103.59
2018-09-04T01:58:54.608Z,56121.07
2018-09-04T02:01:23.794Z,56112.84
2018-09-04T02:03:52.903Z,56106.67
2018-09-04T02:06:22.100Z,56125.18
2018-09-04T02:08:51.261Z,56115.93
2018-09-04T02:11:20.426Z,56072.74
2018-09-04T02:13:49.616Z,56121.07
2018-09-04T02:16:18.803Z,56104.62
2018-09-04T02:18:47.941Z,56095.36
2018-09-04T02:21:17.131Z,56138.55
2018-09-04T02:23:46.271Z,56122.09
2018-09-04T02:26:15.517Z,56112.84
2018-09-04T02:28:44.704Z,56114.90
2018-09-04T02:31:14.188Z,56134.43
2018-09-04T02:33:43.314Z,56128.27
2018-09-04T02:36:12.454Z,56127.23
2018-09-04T02:38:41.631Z,56126.21
2018-09-04T02:41:10.800Z,56143.69
2018-09-04T02:43:39.987Z,56135.46
2018-09-04T02:46:09.124Z,56127.23
2018-09-04T02:48:38.340Z,56108.73
2018-09-04T02:51:07.520Z,56108.73
2018-09-04T02:53:36.702Z,56102.56
2018-09-04T02:56:05.849Z,56130.32
2018-09-04T02:58:35.052Z,56151.91
2018-09-04T03:01:04.280Z,56137.52
2018-09-04T03:03:33.457Z,56114.90
2018-09-04T03:06:02.647Z,56103.59
2018-09-04T03:08:31.940Z,56133.41
2018-09-04T03:11:01.136Z,56139.57
2018-09-04T03:13:30.325Z,56116.95
2018-09-04T03:15:59.458Z,56134.43
2018-09-04T03:18:28.568Z,56135.46
2018-09-04T03:20:57.838Z,56115.93
2018-09-04T03:23:27.101Z,56159.11
2018-09-04T03:25:56.275Z,56132.38
2018-09-04T03:28:25.416Z,56133.41
2018-09-04T03:30:54.587Z,56131.35
2018-09-04T03:33:23.745Z,56131.35
2018-09-04T03:35:52.912Z,56136.49
2018-09-04T03:38:22.165Z,56112.84
2018-09-04T03:40:51.387Z,56130.32
2018-09-04T03:43:20.554Z,56123.12
2018-09-04T03:45:49.759Z,56136.49
2018-09-04T03:48:18.952Z,56149.86
2018-09-04T03:50:48.058Z,56129.29
2018-09-04T03:53:17.210Z,56147.80
2018-09-04T03:55:46.397Z,56137.52
2018-09-04T03:58:15.602Z,56119.01
2018-09-04T04:00:44.763Z,56141.63
2018-09-04T04:03:13.929Z,56137.52
2018-09-04T04:05:43.101Z,56135.46
2018-09-04T04:08:12.232Z,56125.18
2018-09-04T04:10:41.417Z,56145.75
2018-09-04T04:13:10.798Z,56141.63
2018-09-04T04:15:39.921Z,56134.43
2018-09-04T04:18:09.142Z,56121.07
2018-09-04T04:20:38.315Z,56144.71
2018-09-04T04:23:07.458Z,56129.29
2018-09-04T04:25:36.638Z,56152.94
2018-09-04T04:28:05.813Z,56162.20
2018-09-04T04:30:34.979Z,56135.46
2018-09-04T04:33:04.279Z,56168.37
2018-09-04T04:35:33.343Z,56148.83
2018-09-04T04:38:02.527Z,56125.18
2018-09-04T04:40:31.677Z,56125.18
2018-09-04T04:43:00.920Z,56114.90
2018-09-04T04:45:30.116Z,56183.79
2018-09-04T04:47:59.406Z,56121.07
2018-09-04T04:50:28.492Z,56145.75
2018-09-04T04:52:57.695Z,56116.95
2018-09-04T04:55:26.896Z,56125.18
2018-09-04T04:57:56.106Z,56143.69
2018-09-04T05:00:25.323Z,56140.61
2018-09-04T05:02:54.486Z,56163.23
2018-09-04T05:05:23.641Z,56166.31
2018-09-04T05:07:52.817Z,56123.12
2018-09-04T05:10:21.991Z,56122.09
2018-09-04T05:12:51.165Z,56189.96
2018-09-04T05:15:20.290Z,56141.63
2018-09-04T05:17:49.460Z,56140.61
2018-09-04T05:20:27.649Z,56148.83
2018-09-04T05:22:56.793Z,56142.66
2018-09-04T05:25:25.967Z,56137.52
2018-09-04T05:27:55.147Z,56125.18
2018-09-04T05:30:24.353Z,56127.23
2018-09-04T05:32:59.790Z,56132.38
2018-09-04T05:35:32.872Z,56152.94
2018-09-04T05:38:02.079Z,56156.03
2018-09-04T05:40:31.223Z,56124.15
2018-09-04T05:43:02.759Z,56134.43
2018-09-04T05:45:32.838Z,56169.39
2018-09-04T05:48:05.210Z,56094.33
2018-09-04T05:50:34.404Z,56123.12
2018-09-04T05:53:03.556Z,56126.21
2018-09-04T05:55:39.404Z,56112.84
2018-09-04T05:58:08.554Z,56113.87
2018-09-04T06:00:42.722Z,56129.29
2018-09-04T06:03:12.188Z,56108.73
2018-09-04T06:05:41.373Z,56117.98
2018-09-04T06:08:10.518Z,56098.45
2018-09-04T06:10:39.738Z,56082.00
2018-09-04T06:13:08.891Z,56098.45
2018-09-04T06:15:38.057Z,56075.82
2018-09-04T06:18:07.232Z,56106.67
2018-09-04T06:20:36.445Z,56074.80
2018-09-04T06:23:06.680Z,56089.19
2018-09-04T06:25:35.897Z,56064.51
2018-09-04T06:28:05.207Z,56087.14
2018-09-04T06:30:34.360Z,56093.30
2018-09-04T06:33:03.581Z,56086.11
2018-09-04T06:35:32.801Z,56098.45
2018-09-04T06:38:01.992Z,56073.77
2018-09-04T06:40:31.189Z,56048.06
2018-09-04T06:43:00.401Z,56072.74
2018-09-04T06:45:29.563Z,56085.08
2018-09-04T06:47:58.720Z,56092.28
2018-09-04T06:50:27.890Z,56073.77
2018-09-04T06:52:57.073Z,56063.48
2018-09-04T06:55:26.223Z,56061.43
2018-09-04T06:57:55.447Z,56057.32
2018-09-04T07:00:24.562Z,56087.14
2018-09-04T07:02:53.732Z,56074.80
2018-09-04T07:05:22.935Z,56077.88
2018-09-04T07:07:52.178Z,56061.43
2018-09-04T07:10:21.325Z,56068.62
2018-09-04T07:12:50.508Z,56053.20
2018-09-04T07:15:19.699Z,56058.34
2018-09-04T07:17:53.540Z,56065.54
2018-09-04T07:20:22.760Z,56070.68
2018-09-04T07:22:53.258Z,56031.61
2018-09-04T07:25:22.441Z,56041.89
2018-09-04T07:27:51.668Z,56070.68
2018-09-04T07:30:20.812Z,56060.40
2018-09-04T07:32:49.998Z,56044.98
2018-09-04T07:35:19.221Z,56064.51
2018-09-04T07:37:48.404Z,56042.92
2018-09-04T07:40:18.496Z,56038.81
2018-09-04T07:42:47.660Z,56047.03
2018-09-04T07:45:16.778Z,56024.41
2018-09-04T07:47:46.005Z,56033.67
2018-09-04T07:50:15.150Z,56036.75
2018-09-04T07:52:44.307Z,56042.92
2018-09-04T07:55:13.436Z,56021.33
2018-09-04T07:57:42.620Z,56040.86
2018-09-04T08:00:12.531Z,56022.36
2018-09-04T08:02:41.716Z,56013.10
2018-09-04T08:05:10.891Z,56026.47
2018-09-04T08:07:40.017Z,56021.33
2018-09-04T08:10:09.233Z,56032.64
2018-09-04T08:12:38.373Z,56026.47
2018-09-04T08:15:07.588Z,56042.92
2018-09-04T08:17:36.958Z,56030.58
2018-09-04T08:20:06.102Z,56034.70
2018-09-04T08:22:35.259Z,56013.10
2018-09-04T08:25:04.381Z,56037.78
2018-09-04T08:27:33.582Z,56013.10
2018-09-04T08:30:02.779Z,56020.30
2018-09-04T08:32:38.194Z,56021.33
2018-09-04T08:35:07.383Z,56022.36
2018-09-04T08:37:36.569Z,56003.85
2018-09-04T08:40:05.835Z,56026.47
2018-09-04T08:42:34.940Z,55985.34
2018-09-04T08:45:04.061Z,55979.17
2018-09-04T08:47:33.165Z,55989.45
2018-09-04T08:50:02.303Z,56094.33
2018-09-04T08:52:31.506Z,55988.43
2018-09-04T08:55:00.673Z,55979.17
2018-09-04T08:57:29.815Z,56002.82
2018-09-04T08:59:58.955Z,55977.11
2018-09-04T09:02:28.103Z,55987.40
2018-09-04T09:04:57.273Z,55991.51
2018-09-04T09:07:26.366Z,55976.09
2018-09-04T09:09:55.513Z,55984.31
2018-09-04T09:12:24.659Z,55983.28
2018-09-04T09:14:53.782Z,55963.75
2018-09-04T09:17:22.993Z,55953.46
2018-09-04T09:19:52.125Z,55866.07
2018-09-04T09:22:21.322Z,55841.39
2018-09-04T09:24:50.563Z,55834.20
2018-09-04T09:27:19.667Z,55817.75
2018-09-04T09:29:48.810Z,55796.15
2018-09-04T09:32:17.937Z,55837.28
2018-09-04T09:34:47.124Z,55850.64
2018-09-04T09:37:16.368Z,55822.88
2018-09-04T09:39:45.495Z,55810.55
2018-09-04T09:42:14.673Z,55828.02
2018-09-04T09:44:44.861Z,55847.56
2018-09-04T09:47:13.988Z,55898.97
2018-09-04T09:49:43.130Z,55892.80
2018-09-04T09:52:12.258Z,55835.22
2018-09-04T09:54:41.378Z,55836.25
2018-09-04T09:57:10.611Z,55890.75
2018-09-04T09:59:39.932Z,55923.65
2018-09-04T10:02:09.587Z,55913.36
2018-09-04T10:04:38.783Z,55946.27
2018-09-04T10:07:07.933Z,55914.39
2018-09-04T10:09:37.118Z,55942.16
2018-09-04T10:12:06.329Z,55937.01
2018-09-04T10:14:35.570Z,55960.66
2018-09-04T10:17:04.724Z,55919.54
2018-09-04T10:19:34.248Z,55884.57
2018-09-04T10:22:03.422Z,55895.89
2018-09-04T10:24:32.533Z,55897.94
2018-09-04T10:27:01.687Z,55890.75
2018-09-04T10:29:30.809Z,55870.18
2018-09-04T10:31:59.989Z,55900.00
2018-09-04T10:34:29.213Z,55898.97
2018-09-04T10:36:58.345Z,55856.81
2018-09-04T10:39:32.973Z,55916.45
2018-09-04T10:42:02.199Z,55884.57
2018-09-04T10:44:34.028Z,55908.23
2018-09-04T10:47:03.663Z,55884.57
2018-09-04T10:49:32.895Z,55903.08
2018-09-04T10:52:02.255Z,55880.46
2018-09-04T10:54:31.396Z,55920.56
2018-09-04T10:57:00.597Z,55874.29
2018-09-04T10:59:29.714Z,55913.36
2018-09-04T11:01:58.838Z,55956.55
2018-09-04T11:04:27.991Z,55960.66
2018-09-04T11:06:57.159Z,55954.49
2018-09-04T11:09:26.351Z,55968.89
2018-09-04T11:11:55.459Z,55977.11
2018-09-04T11:14:24.676Z,55974.03
2018-09-04T11:16:53.856Z,55968.89
2018-09-04T11:19:22.976Z,56012.07
2018-09-04T11:21:52.172Z,55980.20
2018-09-04T11:24:21.353Z,55979.17
2018-09-04T11:26:50.513Z,55977.11
2018-09-04T11:29:19.790Z,55998.71
2018-09-04T11:31:49.173Z,56020.30
2018-09-04T11:34:18.335Z,55973.00
2018-09-04T11:36:47.499Z,55992.54
2018-09-04T11:39:16.683Z,55978.14
2018-09-04T11:41:45.854Z,55960.66
2018-09-04T11:44:15.009Z,55966.83
2018-09-04T11:46:44.284Z,55990.48
2018-09-04T11:49:13.355Z,55962.72
2018-09-04T11:51:42.489Z,55987.40
2018-09-04T11:54:11.688Z,55974.03
2018-09-04T11:56:41.521Z,55933.93
2018-09-04T11:59:10.728Z,55963.75
2018-09-04T12:01:42.920Z,55967.86
2018-09-04T12:04:12.046Z,55941.13
2018-09-04T12:06:41.125Z,55951.41
2018-09-04T12:09:10.280Z,55938.04
2018-09-04T12:11:39.524Z,55916.45
2018-09-04T12:14:08.694Z,55943.18
2018-09-04T12:16:37.776Z,55931.87
2018-09-04T12:19:07.032Z,55943.18
2018-09-04T12:21:36.153Z,55906.17
2018-09-04T12:24:05.350Z,55921.59
2018-09-04T12:26:34.511Z,55938.04
2018-09-04T12:29:03.624Z,55942.16
2018-09-04T12:31:32.812Z,55937.01
2018-09-04T12:34:02.278Z,55923.65
2018-09-04T12:36:31.405Z,55933.93
2018-09-04T12:39:00.516Z,55906.17
2018-09-04T12:41:29.669Z,55931.87
2018-09-04T12:43:58.829Z,55924.68
2018-09-04T12:46:30.719Z,55921.59
2018-09-04T12:48:59.876Z,55894.86
2018-09-04T12:51:29.035Z,55890.75
2018-09-04T12:53:58.255Z,55910.28
2018-09-04T12:56:27.420Z,55889.72
2018-09-04T12:58:56.620Z,55888.69
2018-09-04T13:01:25.804Z,55913.36
2018-09-04T13:03:54.928Z,55925.70
2018-09-04T13:06:24.089Z,55940.10
2018-09-04T13:08:53.367Z,55919.54
2018-09-04T13:11:22.494Z,55942.16
2018-09-04T13:13:51.599Z,55926.73
2018-09-04T13:16:20.786Z,55957.58
2018-09-04T13:18:49.919Z,55937.01
2018-09-04T13:21:22.266Z,55974.03
2018-09-04T13:23:51.444Z,55951.41
2018-09-04T13:26:20.558Z,55961.69
2018-09-04T13:28:49.697Z,55952.44
2018-09-04T13:31:18.991Z,55954.49
2018-09-04T13:33:48.136Z,55965.80
2018-09-04T13:36:17.320Z,55961.69
2018-09-04T13:38:46.568Z,55956.55
2018-09-04T13:41:15.873Z,55933.93
2018-09-04T13:43:45.051Z,55877.38
2018-09-04T13:46:14.240Z,55908.23
2018-09-04T13:48:43.992Z,55942.16
2018-09-04T13:51:13.342Z,55917.48
2018-09-04T13:53:42.601Z,55914.39
2018-09-04T13:56:11.781Z,55938.04
2018-09-04T13:58:41.002Z,55955.52
2018-09-04T14:01:10.160Z,55953.46
2018-09-04T14:03:39.604Z,55957.58
2018-09-04T14:06:08.870Z,55934.96
2018-09-04T14:08:38.017Z,55955.52
2018-09-04T14:11:07.194Z,55919.54
2018-09-04T14:13:36.292Z,55923.65
2018-09-04T14:16:08.668Z,55942.16
2018-09-04T14:18:37.767Z,55933.93
2018-09-04T14:21:07.358Z,55937.01
2018-09-04T14:23:36.353Z,55918.50
2018-09-04T14:26:05.755Z,55952.44
2018-09-04T14:28:41.933Z,55931.87
2018-09-04T14:31:04.332Z,55940.10
2018-09-04T14:33:33.561Z,55949.35
2018-09-04T14:36:02.762Z,55945.24
2018-09-04T14:38:31.943Z,55951.41
2018-09-04T14:41:01.288Z,55948.32
2018-09-04T14:43:30.492Z,55945.24
2018-09-04T14:45:59.735Z,55944.21
2018-09-04T14:48:28.915Z,55952.44
2018-09-04T14:50:59.095Z,55958.61
2018-09-04T14:53:28.262Z,55966.83
2018-09-04T14:55:57.607Z,55958.61
2018-09-04T14:58:26.813Z,55950.38
2018-09-04T15:00:55.998Z,55959.63
2018-09-04T15:03:25.137Z,55966.83
2018-09-04T15:05:54.351Z,55993.57
2018-09-04T15:08:23.462Z,55967.86
2018-09-04T15:10:52.609Z,55933.93
2018-09-04T15:13:21.971Z,55913.36
2018-09-04T15:15:51.113Z,55942.16
2018-09-04T15:18:20.400Z,55902.05
2018-09-04T15:20:49.528Z,55934.96
2018-09-04T15:23:18.641Z,55938.04
2018-09-04T15:25:47.781Z,55940.10
2018-09-04T15:28:16.980Z,55926.73
2018-09-04T15:30:46.127Z,55941.13
2018-09-04T15:33:15.264Z,55948.32
2018-09-04T15:35:44.378Z,55915.42
2018-09-04T15:38:13.497Z,55948.32
2018-09-04T15:40:42.625Z,55952.44
2018-09-04T15:43:12.170Z,55964.78
2018-09-04T15:45:41.358Z,55957.58
2018-09-04T15:48:10.523Z,55956.55
2018-09-04T15:50:39.611Z,55935.98
2018-09-04T15:53:08.756Z,55960.66
2018-09-04T15:55:37.907Z,55957.58
2018-09-04T15:58:07.174Z,55950.38
2018-09-04T16:00:36.348Z,55977.11
2018-09-04T16:03:05.513Z,55935.98
2018-09-04T16:05:34.704Z,55956.55
2018-09-04T16:08:03.909Z,55971.97
2018-09-04T16:10:33.053Z,55973.00
2018-09-04T16:13:02.250Z,55966.83
2018-09-04T16:15:31.409Z,55988.43
2018-09-04T16:18:00.592Z,55943.18
2018-09-04T16:20:29.794Z,55960.66
2018-09-04T16:22:58.988Z,55969.92
2018-09-04T16:25:28.199Z,55952.44
2018-09-04T16:27:58.273Z,55970.95
2018-09-04T16:30:27.540Z,55957.58
2018-09-04T16:32:57.096Z,55988.43
2018-09-04T16:35:26.246Z,55977.11
2018-09-04T16:37:55.469Z,55946.27
2018-09-04T16:40:24.749Z,55943.18
2018-09-04T16:42:53.945Z,55989.45
2018-09-04T16:45:23.092Z,55952.44
2018-09-04T16:47:52.193Z,55979.17
2018-09-04T16:50:21.650Z,55975.06
2018-09-04T16:52:50.781Z,55986.37
2018-09-04T16:55:19.967Z,55961.69
2018-09-04T16:57:49.107Z,55986.37
2018-09-04T17:00:18.301Z,55968.89
2018-09-04T17:02:47.433Z,55963.75
2018-09-04T17:05:16.584Z,55977.11
2018-09-04T17:07:46.101Z,55967.86
2018-09-04T17:10:15.239Z,55988.43
2018-09-04T17:12:44.401Z,55959.63
2018-09-04T17:15:13.544Z,55954.49
2018-09-04T17:17:42.706Z,55987.40
2018-09-04T17:20:11.862Z,55997.68
2018-09-04T17:22:41.020Z,55988.43
2018-09-04T17:25:10.148Z,55997.68
2018-09-04T17:27:39.307Z,55963.75
2018-09-04T17:30:08.443Z,55994.59
2018-09-04T17:32:37.820Z,55987.40
2018-09-04T17:35:07.214Z,55981.23
2018-09-04T17:37:36.339Z,55997.68
2018-09-04T17:40:05.505Z,56005.90
2018-09-04T17:42:34.935Z,56005.90
2018-09-04T17:45:04.084Z,55994.59
2018-09-04T17:47:33.505Z,55989.45
2018-09-04T17:50:02.611Z,56010.02
2018-09-04T17:52:31.813Z,56008.99
2018-09-04T17:55:01.058Z,56002.82
2018-09-04T17:57:30.238Z,55985.34
2018-09-04T17:59:59.477Z,56012.07
2018-09-04T18:02:28.707Z,55996.65
2018-09-04T18:04:57.872Z,55996.65
2018-09-04T18:07:27.024Z,56010.02
2018-09-04T18:09:56.332Z,56022.36
2018-09-04T18:12:25.502Z,56005.90
2018-09-04T18:14:54.911Z,56015.16
2018-09-04T18:17:24.074Z,55993.57
2018-09-04T18:19:53.355Z,55987.40
2018-09-04T18:22:22.557Z,56025.44
2018-09-04T18:24:51.710Z,56002.82
2018-09-04T18:27:21.070Z,56029.55
2018-09-04T18:29:50.207Z,55991.51
2018-09-04T18:32:19.335Z,55997.68
2018-09-04T18:34:48.474Z,55996.65
2018-09-04T18:37:17.680Z,55992.54
2018-09-04T18:39:46.840Z,56005.90
2018-09-04T18:42:15.991Z,56000.76
2018-09-04T18:44:45.158Z,56010.02
2018-09-04T18:47:14.344Z,55991.51
2018-09-04T18:49:43.545Z,56033.67
2018-09-04T18:52:12.720Z,56006.93
2018-09-04T18:54:41.993Z,56020.30
2018-09-04T18:57:11.179Z,56012.07
2018-09-04T18:59:40.328Z,55999.73
2018-09-04T19:02:09.470Z,56007.96
2018-09-04T19:04:38.679Z,56022.36
2018-09-04T19:07:07.891Z,56028.52
2018-09-04T19:09:37.050Z,56021.33
2018-09-04T19:12:06.282Z,56014.13
2018-09-04T19:14:35.435Z,56018.24
2018-09-04T19:17:04.543Z,56008.99
2018-09-04T19:19:33.775Z,56017.21
2018-09-04T19:22:02.915Z,56011.05
2018-09-04T19:24:32.066Z,56036.75
2018-09-04T19:27:01.190Z,56034.70
2018-09-04T19:29:30.310Z,56013.10
2018-09-04T19:31:59.457Z,56049.09
2018-09-04T19:34:28.560Z,56023.38
2018-09-04T19:36:57.693Z,56026.47
2018-09-04T19:39:26.789Z,56025.44
2018-09-04T19:41:55.901Z,56032.64
2018-09-04T19:44:25.015Z,56024.41
2018-09-04T19:46:54.283Z,56053.20
2018-09-04T19:49:23.426Z,56036.75
2018-09-04T19:51:52.590Z,56034.70
2018-09-04T19:54:21.695Z,56012.07
2018-09-04T19:56:50.804Z,56026.47
2018-09-04T19:59:20.100Z,56032.64
2018-09-04T20:01:49.290Z,56030.58
2018-09-04T20:04:18.374Z,56023.38
2018-09-04T20:06:47.455Z,55999.73
2018-09-04T20:09:16.702Z,56022.36
2018-09-04T20:11:45.872Z,56026.47
2018-09-04T20:14:14.963Z,56029.55
2018-09-04T20:16:44.115Z,56032.64
2018-09-04T20:19:13.226Z,56043.95
2018-09-04T20:21:42.410Z,56011.05
2018-09-04T20:24:11.484Z,56048.06
2018-09-04T20:26:40.599Z,56055.26
2018-09-04T20:29:09.754Z,56006.93
2018-09-04T20:31:39.124Z,56060.40
2018-09-04T20:34:08.272Z,56034.70
2018-09-04T20:36:37.423Z,56038.81
2018-09-04T20:39:07.160Z,56003.85
2018-09-04T20:41:36.278Z,55997.68
2018-09-04T20:44:05.585Z,56022.36
2018-09-04T20:46:35.072Z,56044.98
2018-09-04T20:49:04.805Z,56043.95
2018-09-04T20:51:33.897Z,56008.99
2018-09-04T20:54:03.014Z,56023.38
2018-09-04T20:56:32.169Z,56022.36
2018-09-04T20:59:18.678Z,56046.00
2018-09-04T21:02:05.240Z,56022.36
2018-09-04T21:04:51.603Z,56041.89
2018-09-04T21:07:24.730Z,56036.75
2018-09-04T21:09:59.189Z,56030.58
2018-09-04T21:12:28.316Z,56050.12
2018-09-04T21:14:57.484Z,56049.09
2018-09-04T21:17:26.629Z,56038.81
2018-09-04T21:19:55.785Z,56022.36
2018-09-04T21:22:24.922Z,56032.64
2018-09-04T21:24:54.045Z,56044.98
2018-09-04T21:27:23.213Z,56039.84
2018-09-04T21:29:52.342Z,56034.70
2018-09-04T21:32:21.471Z,56040.86
2018-09-04T21:34:50.637Z,56037.78
2018-09-04T21:37:19.854Z,56036.75
2018-09-04T21:39:49.035Z,56029.55
2018-09-04T21:42:18.264Z,56058.34
2018-09-04T21:44:47.366Z,56034.70
2018-09-04T21:47:16.492Z,56050.12
2018-09-04T21:49:45.652Z,56046.00
2018-09-04T21:52:14.748Z,56043.95
2018-09-04T21:54:43.841Z,56032.64
2018-09-04T21:57:12.978Z,56049.09
2018-09-04T21:59:42.104Z,56050.12
2018-09-04T22:02:11.262Z,56036.75
2018-09-04T22:04:41.536Z,56034.70
2018-09-04T22:07:10.694Z,56079.94
2018-09-04T22:09:39.812Z,56042.92
2018-09-04T22:12:10.810Z,56067.60
2018-09-04T22:14:40.362Z,56059.37
2018-09-04T22:17:09.519Z,56049.09
2018-09-04T22:19:38.623Z,56058.34
2018-09-04T22:22:07.756Z,56024.41
2018-09-04T22:24:37.414Z,56053.20
2018-09-04T22:27:09.531Z,56047.03
2018-09-04T22:29:42.347Z,56051.14
2018-09-04T22:32:12.492Z,56044.98
2018-09-04T22:34:41.624Z,56049.09
2018-09-04T22:37:11.600Z,56013.10
2018-09-04T22:39:40.928Z,56042.92
2018-09-04T22:42:10.060Z,56064.51
2018-09-04T22:44:39.251Z,56063.48
2018-09-04T22:47:08.688Z,56067.60
2018-09-04T22:49:38.471Z,56071.71
2018-09-04T22:52:07.563Z,56026.47
2018-09-04T22:54:36.667Z,56060.40
2018-09-04T22:57:06.273Z,56054.23
2018-09-04T22:59:35.434Z,56026.47
2018-09-04T23:02:04.600Z,56079.94
2018-09-04T23:04:33.735Z,56042.92
2018-09-04T23:07:02.947Z,56051.14
2018-09-04T23:09:32.350Z,56038.81
2018-09-04T23:12:01.560Z,56030.58
2018-09-04T23:14:30.647Z,56010.02
2018-09-04T23:16:59.801Z,56051.14
2018-09-04T23:19:28.975Z,56062.46
2018-09-04T23:21:58.124Z,56084.05
2018-09-04T23:24:27.203Z,56075.82
2018-09-04T23:26:56.327Z,56023.38
2018-09-04T23:29:25.493Z,56041.89
2018-09-04T23:31:54.856Z,56061.43
2018-09-04T23:34:24.091Z,56067.60
2018-09-04T23:36:53.255Z,56075.82
2018-09-04T23:39:22.434Z,56048.06
2018-09-04T23:41:51.592Z,56035.72
2018-09-04T23:44:20.746Z,56067.60
2018-09-04T23:46:49.978Z,56088.16
2018-09-04T23:49:19.244Z,56085.08
2018-09-04T23:51:48.365Z,56046.00
2018-09-04T23:54:17.488Z,56061.43
2018-09-04T23:56:46.800Z,56049.09
2018-09-04T23:59:16.365Z,56077.88
